createdAt,value
2019-01-27T00:01:40.709Z,23.00
2019-01-27T00:04:10.214Z,22.90
2019-01-27T00:06:39.719Z,21.33
2019-01-27T00:09:10.456Z,20.02
2019-01-27T00:11:40.558Z,20.52
2019-01-27T00:14:10.173Z,19.50
2019-01-27T00:16:39.721Z,18.05
2019-01-27T00:19:09.368Z,17.92
2019-01-27T00:21:39.242Z,17.35
2019-01-27T00:24:08.715Z,17.00
2019-01-27T00:26:38.603Z,15.40
2019-01-27T00:29:08.539Z,14.85
2019-01-27T00:31:38.648Z,15.07
2019-01-27T00:34:08.203Z,11.88
2019-01-27T00:36:37.703Z,12.90
2019-01-27T00:39:09.896Z,12.33
2019-01-27T00:41:39.415Z,11.95
2019-01-27T00:44:28.535Z,12.28
2019-01-27T00:46:58.003Z,11.90
2019-01-27T00:49:27.506Z,12.53
2019-01-27T00:51:57.011Z,10.83
2019-01-27T00:54:26.547Z,11.45
2019-01-27T00:56:56.118Z,11.78
2019-01-27T00:59:25.679Z,11.12
2019-01-27T01:01:55.167Z,11.20
2019-01-27T01:04:25.036Z,11.90
2019-01-27T01:06:55.141Z,11.05
2019-01-27T01:09:24.583Z,12.00
2019-01-27T01:11:54.157Z,10.63
2019-01-27T01:14:23.671Z,11.00
2019-01-27T01:16:53.183Z,11.05
2019-01-27T01:19:22.724Z,11.40
2019-01-27T01:21:52.265Z,10.45
2019-01-27T01:24:21.753Z,11.12
2019-01-27T01:26:51.239Z,10.87
2019-01-27T01:29:20.856Z,11.30
2019-01-27T01:31:50.453Z,11.00
2019-01-27T01:34:19.957Z,10.28
2019-01-27T01:36:49.535Z,10.60
2019-01-27T01:39:19.044Z,11.03
2019-01-27T01:41:48.598Z,10.60
2019-01-27T01:44:18.119Z,12.03
2019-01-27T01:46:47.597Z,11.33
2019-01-27T01:49:17.067Z,10.83
2019-01-27T01:51:46.652Z,9.63
2019-01-27T01:54:16.335Z,10.53
2019-01-27T01:56:45.855Z,10.10
2019-01-27T01:59:15.392Z,10.00
2019-01-27T02:01:45.031Z,10.08
2019-01-27T02:04:15.067Z,10.40
2019-01-27T02:06:44.794Z,9.20
2019-01-27T02:09:14.238Z,10.20
2019-01-27T02:11:43.769Z,9.35
2019-01-27T02:14:13.627Z,9.98
2019-01-27T02:16:43.359Z,10.18
2019-01-27T02:19:12.864Z,10.45
2019-01-27T02:21:43.951Z,10.03
2019-01-27T02:24:13.561Z,10.67
2019-01-27T02:26:43.795Z,11.15
2019-01-27T02:29:13.454Z,10.37
2019-01-27T02:31:42.958Z,10.23
2019-01-27T02:34:12.428Z,9.85
2019-01-27T02:36:42.628Z,10.25
2019-01-27T02:39:12.122Z,11.33
2019-01-27T02:41:41.589Z,11.73
2019-01-27T02:44:11.113Z,10.13
2019-01-27T02:46:40.616Z,11.05
2019-01-27T02:49:10.133Z,11.20
2019-01-27T02:51:39.629Z,11.40
2019-01-27T02:54:09.162Z,10.98
2019-01-27T02:56:38.635Z,10.75
2019-01-27T02:59:08.272Z,10.80
2019-01-27T03:01:47.230Z,10.80
2019-01-27T03:04:16.743Z,11.10
2019-01-27T03:06:47.915Z,11.22
2019-01-27T03:09:18.840Z,11.55
2019-01-27T03:11:48.344Z,10.43
2019-01-27T03:14:18.321Z,10.63
2019-01-27T03:16:48.543Z,9.95
2019-01-27T03:19:18.275Z,9.63
2019-01-27T03:21:47.765Z,10.90
2019-01-27T03:24:17.231Z,9.68
2019-01-27T03:26:46.743Z,10.05
2019-01-27T03:29:16.227Z,10.25
2019-01-27T03:31:45.729Z,9.73
2019-01-27T03:34:15.253Z,10.98
2019-01-27T03:36:44.739Z,10.18
2019-01-27T03:39:14.205Z,10.25
2019-01-27T03:41:43.938Z,10.20
2019-01-27T03:44:13.422Z,9.60
2019-01-27T03:46:42.921Z,9.48
2019-01-27T03:49:12.434Z,8.70
2019-01-27T03:51:41.996Z,9.05
2019-01-27T03:54:11.533Z,9.00
2019-01-27T03:56:41.173Z,9.38
2019-01-27T03:59:10.719Z,9.40
2019-01-27T04:01:40.201Z,9.10
2019-01-27T04:04:10.164Z,9.23
2019-01-27T04:06:39.680Z,9.98
2019-01-27T04:09:09.348Z,9.70
2019-01-27T04:11:38.837Z,9.65
2019-01-27T04:14:08.310Z,9.93
2019-01-27T04:16:37.904Z,8.28
2019-01-27T04:19:07.460Z,9.83
2019-01-27T04:21:37.002Z,8.63
2019-01-27T04:24:06.611Z,9.63
2019-01-27T04:26:36.454Z,9.15
2019-01-27T04:29:06.556Z,9.60
2019-01-27T04:31:36.041Z,9.70
2019-01-27T04:34:06.559Z,9.83
2019-01-27T04:36:36.026Z,8.70
2019-01-27T04:39:08.479Z,9.10
2019-01-27T04:41:38.729Z,8.73
2019-01-27T04:44:08.794Z,8.88
2019-01-27T04:46:38.305Z,9.15
2019-01-27T04:49:07.858Z,8.83
2019-01-27T04:51:37.359Z,9.10
2019-01-27T04:54:06.964Z,7.97
2019-01-27T04:56:36.456Z,8.45
2019-01-27T04:59:06.104Z,8.13
2019-01-27T05:01:35.660Z,8.38
2019-01-27T05:04:07.337Z,9.25
2019-01-27T05:06:36.816Z,9.20
2019-01-27T05:09:09.962Z,8.03
2019-01-27T05:11:39.567Z,8.38
2019-01-27T05:14:09.066Z,8.20
2019-01-27T05:16:38.672Z,9.03
2019-01-27T05:19:08.777Z,9.00
2019-01-27T05:21:38.603Z,8.38
2019-01-27T05:24:08.212Z,8.38
2019-01-27T05:26:37.725Z,8.28
2019-01-27T05:29:07.226Z,8.45
2019-01-27T05:31:36.765Z,7.80
2019-01-27T05:34:06.346Z,9.18
2019-01-27T05:36:35.831Z,9.10
2019-01-27T05:39:08.014Z,8.00
2019-01-27T05:41:37.766Z,8.90
2019-01-27T05:44:07.321Z,7.30
2019-01-27T05:46:36.826Z,8.88
2019-01-27T05:49:06.370Z,8.90
2019-01-27T05:51:35.876Z,8.80
2019-01-27T05:54:05.684Z,7.95
2019-01-27T05:56:35.204Z,8.30
2019-01-27T05:59:04.716Z,8.10
2019-01-27T06:01:34.262Z,8.38
2019-01-27T06:04:04.075Z,7.78
2019-01-27T06:06:33.589Z,7.22
2019-01-27T06:09:03.936Z,7.35
2019-01-27T06:11:33.436Z,8.05
2019-01-27T06:14:02.910Z,7.75
2019-01-27T06:16:32.386Z,7.60
2019-01-27T06:19:01.884Z,7.42
2019-01-27T06:21:31.358Z,8.38
2019-01-27T06:24:00.845Z,7.62
2019-01-27T06:26:30.556Z,8.00
2019-01-27T06:29:00.055Z,8.95
2019-01-27T06:31:29.564Z,8.28
2019-01-27T06:33:59.174Z,8.13
2019-01-27T06:36:28.690Z,7.55
2019-01-27T06:38:58.178Z,7.28
2019-01-27T06:41:27.678Z,7.70
2019-01-27T06:43:57.154Z,7.00
2019-01-27T06:46:26.660Z,7.00
2019-01-27T06:48:56.837Z,7.47
2019-01-27T06:51:26.315Z,7.17
2019-01-27T06:53:55.786Z,7.15
2019-01-27T06:56:25.265Z,6.75
2019-01-27T06:59:02.361Z,6.65
2019-01-27T07:01:33.552Z,6.87
2019-01-27T07:04:04.664Z,6.72
2019-01-27T07:06:48.435Z,6.95
2019-01-27T07:09:34.251Z,6.05
2019-01-27T07:12:05.388Z,6.22
2019-01-27T07:14:52.483Z,6.97
2019-01-27T07:17:23.666Z,6.20
2019-01-27T07:19:54.820Z,6.10
2019-01-27T07:22:40.843Z,6.87
2019-01-27T07:25:30.253Z,6.30
2019-01-27T07:28:10.251Z,6.28
2019-01-27T07:30:41.371Z,7.20
2019-01-27T07:33:28.343Z,7.25
2019-01-27T07:35:59.467Z,6.45
2019-01-27T07:38:30.593Z,7.33
2019-01-27T07:41:18.365Z,6.92
2019-01-27T07:43:49.572Z,6.50
2019-01-27T07:46:20.693Z,7.00
2019-01-27T07:48:54.812Z,5.85
2019-01-27T07:51:37.881Z,6.92
2019-01-27T07:54:17.646Z,5.90
2019-01-27T07:57:01.908Z,6.35
2019-01-27T07:59:39.236Z,6.00
2019-01-27T08:02:10.446Z,5.83
2019-01-27T08:04:53.772Z,6.55
2019-01-27T08:07:23.034Z,6.92
2019-01-27T08:10:03.339Z,6.58
2019-01-27T08:12:50.231Z,5.95
2019-01-27T08:15:21.469Z,6.30
2019-01-27T08:17:52.605Z,6.30
2019-01-27T08:20:29.465Z,6.05
2019-01-27T08:23:00.569Z,5.90
2019-01-27T08:25:31.713Z,6.20
2019-01-27T08:28:05.324Z,6.00
2019-01-27T08:30:36.487Z,6.30
2019-01-27T08:33:10.678Z,6.60
2019-01-27T08:35:47.765Z,5.87
2019-01-27T08:38:18.937Z,5.30
2019-01-27T08:40:50.024Z,6.10
2019-01-27T08:43:36.926Z,6.55
2019-01-27T08:46:08.055Z,6.42
2019-01-27T08:48:37.565Z,6.37
2019-01-27T08:51:07.480Z,5.60
2019-01-27T08:53:37.067Z,6.42
2019-01-27T08:56:06.570Z,6.65
2019-01-27T08:58:36.055Z,5.65
2019-01-27T09:01:07.523Z,5.15
2019-01-27T09:03:41.320Z,6.22
2019-01-27T09:06:21.430Z,6.30
2019-01-27T09:08:52.673Z,5.95
2019-01-27T09:11:23.788Z,5.72
2019-01-27T09:13:54.947Z,5.50
2019-01-27T09:16:44.022Z,6.07
2019-01-27T09:19:15.144Z,6.67
2019-01-27T09:21:48.859Z,6.25
2019-01-27T09:24:22.667Z,6.20
2019-01-27T09:26:56.473Z,5.55
2019-01-27T09:29:27.600Z,5.40
2019-01-27T09:32:01.411Z,5.28
2019-01-27T09:34:41.283Z,4.80
2019-01-27T09:37:28.758Z,5.53
2019-01-27T09:40:14.491Z,4.70
2019-01-27T09:42:46.251Z,4.90
2019-01-27T09:45:17.908Z,5.28
2019-01-27T09:48:04.165Z,5.50
2019-01-27T09:50:35.255Z,4.60
2019-01-27T09:53:12.144Z,4.30
2019-01-27T09:55:51.948Z,4.10
2019-01-27T09:58:26.004Z,3.60
2019-01-27T10:01:02.615Z,3.57
2019-01-27T10:03:45.700Z,4.27
2019-01-27T10:06:22.952Z,3.70
2019-01-27T10:09:06.061Z,3.90
2019-01-27T10:11:37.180Z,3.90
2019-01-27T10:14:08.522Z,3.77
2019-01-27T10:16:39.855Z,3.60
2019-01-27T10:19:16.668Z,3.10
2019-01-27T10:21:50.326Z,2.93
2019-01-27T10:24:21.451Z,3.57
2019-01-27T10:26:52.563Z,2.80
2019-01-27T10:29:29.368Z,2.53
2019-01-27T10:32:16.440Z,2.90
2019-01-27T10:34:59.522Z,2.50
2019-01-27T10:37:30.927Z,2.20
2019-01-27T10:40:09.155Z,2.40
2019-01-27T10:42:37.355Z,2.50
2019-01-27T10:45:20.238Z,2.47
2019-01-27T10:47:53.771Z,2.10
2019-01-27T10:50:28.410Z,2.30
2019-01-27T10:52:59.547Z,2.03
2019-01-27T10:55:33.793Z,1.70
2019-01-27T10:58:21.205Z,1.97
2019-01-27T11:00:52.398Z,2.00
2019-01-27T11:03:23.600Z,2.03
2019-01-27T11:06:11.740Z,1.70
2019-01-27T11:08:59.370Z,1.53
2019-01-27T11:11:31.029Z,1.93
2019-01-27T11:14:04.719Z,2.00
2019-01-27T11:16:38.816Z,1.80
2019-01-27T11:19:09.958Z,1.87
2019-01-27T11:21:41.613Z,1.90
2019-01-27T11:24:22.472Z,1.87
2019-01-27T11:26:59.895Z,1.57
2019-01-27T11:29:46.227Z,2.80
2019-01-27T11:32:27.017Z,2.17
2019-01-27T11:35:12.984Z,1.70
2019-01-27T11:37:44.098Z,2.10
2019-01-27T11:40:18.350Z,1.70
2019-01-27T11:42:49.907Z,1.60
2019-01-27T11:45:25.004Z,1.50
2019-01-27T11:48:13.864Z,1.43
2019-01-27T11:50:44.981Z,1.30
2019-01-27T11:53:14.483Z,1.87
2019-01-27T11:55:43.987Z,1.50
2019-01-27T11:58:13.451Z,1.90
2019-01-27T12:00:44.395Z,1.43
2019-01-27T12:03:13.994Z,1.30
2019-01-27T12:05:43.479Z,1.60
2019-01-27T12:08:12.971Z,1.33
2019-01-27T12:10:42.553Z,1.63
2019-01-27T12:13:12.006Z,1.90
2019-01-27T12:15:41.489Z,1.30
2019-01-27T12:18:11.011Z,1.80
2019-01-27T12:20:40.511Z,1.30
2019-01-27T12:23:09.948Z,1.43
2019-01-27T12:25:39.974Z,1.47
2019-01-27T12:28:09.800Z,1.50
2019-01-27T12:30:39.286Z,1.40
2019-01-27T12:33:08.784Z,1.30
2019-01-27T12:35:38.271Z,1.50
2019-01-27T12:38:07.753Z,2.00
2019-01-27T12:40:37.358Z,1.60
2019-01-27T12:43:06.833Z,1.00
2019-01-27T12:45:36.401Z,1.50
2019-01-27T12:48:06.288Z,1.33
2019-01-27T12:50:35.862Z,1.30
2019-01-27T12:53:05.471Z,1.30
2019-01-27T12:55:34.975Z,1.77
2019-01-27T12:58:05.005Z,1.50
2019-01-27T13:00:42.356Z,1.37
2019-01-27T13:03:11.914Z,1.67
2019-01-27T13:05:41.452Z,1.70
2019-01-27T13:08:11.025Z,1.50
2019-01-27T13:10:40.581Z,1.20
2019-01-27T13:13:12.165Z,1.23
2019-01-27T13:15:41.878Z,2.30
2019-01-27T13:18:11.397Z,1.90
2019-01-27T13:20:41.017Z,1.57
2019-01-27T13:23:10.549Z,1.67
2019-01-27T13:25:40.024Z,1.30
2019-01-27T13:28:09.517Z,1.10
2019-01-27T13:30:39.644Z,1.00
2019-01-27T13:33:09.164Z,1.47
2019-01-27T13:35:38.989Z,1.40
2019-01-27T13:38:08.778Z,1.20
2019-01-27T13:40:38.306Z,1.10
2019-01-27T13:43:08.352Z,1.30
2019-01-27T13:45:37.823Z,1.37
2019-01-27T13:48:07.373Z,1.37
2019-01-27T13:50:36.906Z,1.57
2019-01-27T13:53:07.275Z,1.23
2019-01-27T13:55:36.776Z,1.10
2019-01-27T13:58:06.583Z,1.60
2019-01-27T14:00:42.587Z,1.47
2019-01-27T14:03:12.146Z,1.40
2019-01-27T14:05:41.731Z,1.27
2019-01-27T14:08:11.842Z,1.43
2019-01-27T14:10:41.339Z,1.50
2019-01-27T14:13:10.827Z,0.73
2019-01-27T14:15:41.224Z,1.50
2019-01-27T14:18:11.137Z,1.20
2019-01-27T14:20:40.679Z,1.40
2019-01-27T14:23:10.556Z,1.77
2019-01-27T14:25:40.033Z,1.60
2019-01-27T14:28:09.528Z,1.40
2019-01-27T14:30:45.365Z,1.43
2019-01-27T14:33:14.842Z,1.50
2019-01-27T14:35:44.321Z,1.53
2019-01-27T14:38:13.857Z,1.97
2019-01-27T14:40:43.323Z,2.10
2019-01-27T14:43:12.826Z,1.60
2019-01-27T14:45:42.382Z,2.00
2019-01-27T14:48:11.855Z,2.00
2019-01-27T14:50:46.018Z,1.80
2019-01-27T14:53:15.845Z,2.00
2019-01-27T14:55:45.397Z,2.07
2019-01-27T14:58:14.966Z,2.30
2019-01-27T15:00:46.085Z,2.30
2019-01-27T15:03:16.536Z,2.07
2019-01-27T15:05:45.985Z,2.20
2019-01-27T15:08:15.520Z,2.23
2019-01-27T15:10:45.462Z,2.80
2019-01-27T15:13:15.034Z,2.00
2019-01-27T15:15:44.689Z,2.20
2019-01-27T15:18:14.173Z,2.00
2019-01-27T15:21:03.167Z,2.57
2019-01-27T15:23:33.291Z,2.40
2019-01-27T15:26:03.120Z,2.73
2019-01-27T15:28:32.652Z,3.03
2019-01-27T15:31:02.121Z,3.17
2019-01-27T15:33:31.591Z,3.70
2019-01-27T15:36:01.133Z,3.10
2019-01-27T15:38:30.601Z,3.17
2019-01-27T15:41:00.082Z,3.23
2019-01-27T15:43:29.594Z,2.40
2019-01-27T15:45:59.045Z,2.60
2019-01-27T15:48:28.527Z,2.90
2019-01-27T15:50:59.642Z,2.57
2019-01-27T15:53:29.798Z,2.40
2019-01-27T15:55:59.445Z,2.20
2019-01-27T15:58:29.057Z,2.33
2019-01-27T16:00:58.630Z,2.27
2019-01-27T16:03:28.533Z,2.80
2019-01-27T16:05:58.023Z,2.23
2019-01-27T16:08:27.523Z,2.40
2019-01-27T16:10:57.065Z,2.40
2019-01-27T16:13:26.639Z,2.60
2019-01-27T16:15:56.158Z,2.17
2019-01-27T16:18:25.633Z,2.60
2019-01-27T16:20:55.233Z,1.97
2019-01-27T16:23:29.994Z,2.90
2019-01-27T16:26:00.887Z,2.30
2019-01-27T16:28:30.369Z,2.30
2019-01-27T16:31:07.198Z,2.20
2019-01-27T16:33:44.044Z,2.60
2019-01-27T16:36:13.691Z,2.53
2019-01-27T16:38:43.180Z,2.20
2019-01-27T16:41:12.727Z,2.53
2019-01-27T16:43:42.211Z,2.30
2019-01-27T16:46:11.695Z,2.53
2019-01-27T16:48:41.181Z,2.77
2019-01-27T16:51:10.681Z,3.10
2019-01-27T16:53:40.648Z,3.07
2019-01-27T16:56:10.150Z,3.20
2019-01-27T16:58:39.784Z,2.60
2019-01-27T17:01:09.660Z,5.50
2019-01-27T17:03:39.144Z,4.80
2019-01-27T17:06:08.778Z,3.60
2019-01-27T17:08:38.243Z,2.80
2019-01-27T17:11:07.775Z,3.30
2019-01-27T17:13:37.378Z,3.23
2019-01-27T17:16:07.258Z,3.20
2019-01-27T17:18:37.145Z,3.40
2019-01-27T17:21:07.300Z,3.53
2019-01-27T17:23:36.792Z,3.30
2019-01-27T17:26:06.540Z,3.57
2019-01-27T17:28:36.056Z,3.63
2019-01-27T17:31:05.743Z,3.10
2019-01-27T17:33:35.247Z,2.90
2019-01-27T17:36:04.815Z,3.23
2019-01-27T17:38:40.383Z,5.50
2019-01-27T17:41:05.592Z,4.57
2019-01-27T17:43:35.598Z,3.77
2019-01-27T17:46:05.524Z,4.20
2019-01-27T17:48:35.020Z,3.83
2019-01-27T17:51:04.804Z,4.53
2019-01-27T17:53:35.948Z,4.33
2019-01-27T17:56:05.689Z,4.50
2019-01-27T17:58:54.328Z,4.13
2019-01-27T18:01:30.654Z,4.57
2019-01-27T18:04:01.814Z,4.00
2019-01-27T18:06:33.001Z,6.17
2019-01-27T18:09:16.015Z,4.03
2019-01-27T18:11:52.615Z,4.70
2019-01-27T18:14:24.021Z,3.73
2019-01-27T18:16:53.505Z,4.23
2019-01-27T18:19:23.009Z,4.47
2019-01-27T18:21:52.532Z,6.20
2019-01-27T18:24:22.029Z,4.70
2019-01-27T18:26:51.528Z,4.93
2019-01-27T18:29:21.061Z,3.50
2019-01-27T18:31:50.596Z,4.30
2019-01-27T18:34:20.048Z,4.77
2019-01-27T18:36:49.604Z,4.80
2019-01-27T18:39:19.125Z,5.27
2019-01-27T18:41:48.566Z,5.63
2019-01-27T18:44:18.099Z,5.60
2019-01-27T18:46:47.648Z,6.37
2019-01-27T18:49:17.125Z,6.60
2019-01-27T18:51:46.678Z,6.22
2019-01-27T18:54:34.151Z,6.42
2019-01-27T18:57:07.775Z,6.43
2019-01-27T18:59:44.682Z,5.90
2019-01-27T19:02:27.358Z,5.93
2019-01-27T19:04:58.519Z,6.30
2019-01-27T19:07:29.689Z,5.77
2019-01-27T19:10:01.197Z,6.70
2019-01-27T19:12:34.866Z,6.37
2019-01-27T19:15:16.302Z,6.00
2019-01-27T19:17:52.994Z,7.00
2019-01-27T19:20:30.085Z,6.33
2019-01-27T19:23:17.428Z,6.90
2019-01-27T19:25:54.591Z,7.67
2019-01-27T19:28:31.161Z,7.13
2019-01-27T19:31:03.095Z,6.70
2019-01-27T19:33:37.905Z,7.33
2019-01-27T19:36:09.336Z,7.93
2019-01-27T19:38:43.654Z,8.30
2019-01-27T19:44:19.161Z,8.97
2019-01-27T19:46:56.200Z,8.90
2019-01-27T19:49:30.101Z,8.80
2019-01-27T19:52:13.244Z,8.20
2019-01-27T19:54:54.501Z,8.80
2019-01-27T19:57:34.855Z,9.53
2019-01-27T20:00:10.431Z,8.73
2019-01-27T20:02:48.246Z,9.53
2019-01-27T20:05:35.677Z,9.60
2019-01-27T20:08:09.786Z,9.40
2019-01-27T20:10:40.911Z,10.00
2019-01-27T20:13:15.142Z,9.70
2019-01-27T20:15:46.341Z,10.63
2019-01-27T20:18:17.484Z,10.60
2019-01-27T20:20:55.148Z,11.40
2019-01-27T20:23:32.208Z,10.73
2019-01-27T20:26:06.204Z,11.40
2019-01-27T20:28:45.886Z,11.20
2019-01-27T20:31:33.317Z,11.60
2019-01-27T20:34:04.472Z,11.87
2019-01-27T20:36:44.690Z,13.27
2019-01-27T20:39:18.303Z,14.40
2019-01-27T20:41:49.472Z,12.27
2019-01-27T20:44:35.633Z,13.30
2019-01-27T20:47:06.857Z,12.27
2019-01-27T20:49:41.450Z,12.60
2019-01-27T20:52:25.433Z,12.00
2019-01-27T20:54:59.448Z,11.60
2019-01-27T20:57:30.597Z,13.30
2019-01-27T21:00:01.766Z,13.37
2019-01-27T21:02:36.019Z,13.07
2019-01-27T21:05:09.900Z,13.53
2019-01-27T21:07:47.023Z,13.00
2019-01-27T21:10:27.600Z,10.70
2019-01-27T21:13:05.087Z,12.47
2019-01-27T21:15:44.019Z,12.83
2019-01-27T21:18:12.312Z,10.73
2019-01-27T21:20:42.080Z,9.30
2019-01-27T21:23:13.061Z,8.77
2019-01-27T21:25:42.586Z,8.57
2019-01-27T21:28:12.318Z,7.30
2019-01-27T21:30:41.973Z,6.90
2019-01-27T21:33:11.954Z,7.20
2019-01-27T21:35:41.464Z,6.20
2019-01-27T21:38:10.932Z,6.70
2019-01-27T21:40:40.416Z,5.60
2019-01-27T21:43:10.202Z,5.63
2019-01-27T21:45:39.681Z,6.23
2019-01-27T21:48:09.213Z,4.70
2019-01-27T21:50:38.692Z,5.00
2019-01-27T21:53:08.295Z,4.83
2019-01-27T21:55:37.920Z,5.80
2019-01-27T21:58:07.380Z,5.20
2019-01-27T22:00:36.859Z,5.60
2019-01-27T22:03:06.532Z,5.47
2019-01-27T22:05:36.074Z,5.27
2019-01-27T22:08:05.653Z,5.47
2019-01-27T22:10:35.183Z,5.40
2019-01-27T22:13:04.867Z,5.60
2019-01-27T22:15:34.359Z,5.67
2019-01-27T22:18:04.520Z,5.47
2019-01-27T22:20:34.008Z,5.50
2019-01-27T22:23:03.570Z,6.57
2019-01-27T22:25:33.220Z,4.87
2019-01-27T22:28:02.711Z,5.90
2019-01-27T22:30:32.201Z,5.80
2019-01-27T22:33:01.698Z,6.50
2019-01-27T22:35:31.221Z,7.45
2019-01-27T22:38:00.870Z,8.80
2019-01-27T22:40:30.665Z,9.27
2019-01-27T22:43:00.172Z,9.30
2019-01-27T22:45:29.677Z,8.15
2019-01-27T22:47:59.734Z,8.40
2019-01-27T22:50:29.279Z,8.73
2019-01-27T22:52:59.157Z,9.30
2019-01-27T22:55:28.691Z,10.58
2019-01-27T22:57:58.161Z,9.17
2019-01-27T23:00:42.382Z,10.35
2019-01-27T23:03:11.893Z,9.10
2019-01-27T23:05:41.391Z,10.05
2019-01-27T23:08:10.882Z,9.55
2019-01-27T23:10:40.784Z,9.18
2019-01-27T23:13:10.271Z,8.13
2019-01-27T23:15:39.798Z,8.80
2019-01-27T23:18:09.302Z,8.45
2019-01-27T23:20:38.794Z,9.48
2019-01-27T23:23:08.846Z,8.25
2019-01-27T23:25:38.329Z,9.45
2019-01-27T23:28:07.822Z,9.40
2019-01-27T23:30:37.379Z,9.10
2019-01-27T23:33:07.552Z,9.48
2019-01-27T23:35:37.149Z,9.63
2019-01-27T23:38:06.877Z,9.58
2019-01-27T23:40:36.358Z,8.63
2019-01-27T23:43:05.838Z,9.10
2019-01-27T23:45:35.468Z,8.08
2019-01-27T23:48:05.021Z,7.37
2019-01-27T23:50:34.508Z,7.90
2019-01-27T23:53:05.641Z,6.40
2019-01-27T23:55:35.691Z,7.42
2019-01-27T23:58:05.334Z,7.00
